sensor_id;sensor_type;location;lat;lon;timestamp;P1;durP1;ratioP1;P2;durP2;ratioP2
46377;SDS011;32083;47.360;9.650;2022-12-26T00:00:58;13.13;;;10.75;;
46377;SDS011;32083;47.360;9.650;2022-12-26T00:03:26;13.57;;;11.05;;
46377;SDS011;32083;47.360;9.650;2022-12-26T00:05:53;13.02;;;10.73;;
46377;SDS011;32083;47.360;9.650;2022-12-26T00:08:19;11.68;;;9.45;;
46377;SDS011;32083;47.360;9.650;2022-12-26T00:10:46;9.85;;;8.63;;
46377;SDS011;32083;47.360;9.650;2022-12-26T00:13:13;10.40;;;8.52;;
46377;SDS011;32083;47.360;9.650;2022-12-26T00:15:40;12.82;;;10.43;;
46377;SDS011;32083;47.360;9.650;2022-12-26T00:18:06;10.98;;;9.13;;
46377;SDS011;32083;47.360;9.650;2022-12-26T00:20:32;10.80;;;8.98;;
46377;SDS011;32083;47.360;9.650;2022-12-26T00:23:02;10.82;;;9.30;;
46377;SDS011;32083;47.360;9.650;2022-12-26T00:25:32;10.52;;;9.40;;
46377;SDS011;32083;47.360;9.650;2022-12-26T00:27:58;8.57;;;7.50;;
46377;SDS011;32083;47.360;9.650;2022-12-26T00:30:27;11.35;;;8.80;;
46377;SDS011;32083;47.360;9.650;2022-12-26T00:32:57;9.23;;;7.97;;
46377;SDS011;32083;47.360;9.650;2022-12-26T00:35:23;10.15;;;8.27;;
46377;SDS011;32083;47.360;9.650;2022-12-26T00:37:49;9.25;;;7.70;;
46377;SDS011;32083;47.360;9.650;2022-12-26T00:40:15;10.43;;;8.40;;
46377;SDS011;32083;47.360;9.650;2022-12-26T00:42:41;8.52;;;7.38;;
46377;SDS011;32083;47.360;9.650;2022-12-26T00:45:10;9.35;;;7.32;;
46377;SDS011;32083;47.360;9.650;2022-12-26T00:47:36;9.00;;;7.32;;
46377;SDS011;32083;47.360;9.650;2022-12-26T00:50:03;8.32;;;6.85;;
46377;SDS011;32083;47.360;9.650;2022-12-26T00:52:34;8.68;;;7.78;;
46377;SDS011;32083;47.360;9.650;2022-12-26T00:55:00;9.23;;;8.20;;
46377;SDS011;32083;47.360;9.650;2022-12-26T00:57:26;9.90;;;8.50;;
46377;SDS011;32083;47.360;9.650;2022-12-26T00:59:53;9.60;;;8.23;;
46377;SDS011;32083;47.360;9.650;2022-12-26T01:02:19;11.52;;;8.73;;
46377;SDS011;32083;47.360;9.650;2022-12-26T01:05:08;8.60;;;7.65;;
46377;SDS011;32083;47.360;9.650;2022-12-26T01:07:35;10.75;;;9.02;;
46377;SDS011;32083;47.360;9.650;2022-12-26T01:10:03;12.65;;;9.02;;
46377;SDS011;32083;47.360;9.650;2022-12-26T01:12:29;11.20;;;9.10;;
46377;SDS011;32083;47.360;9.650;2022-12-26T01:14:55;14.45;;;10.43;;
46377;SDS011;32083;47.360;9.650;2022-12-26T01:17:22;17.08;;;10.30;;
46377;SDS011;32083;47.360;9.650;2022-12-26T01:19:48;10.18;;;8.82;;
46377;SDS011;32083;47.360;9.650;2022-12-26T01:22:14;8.65;;;7.38;;
46377;SDS011;32083;47.360;9.650;2022-12-26T01:24:40;15.30;;;11.18;;
46377;SDS011;32083;47.360;9.650;2022-12-26T01:27:06;21.10;;;11.88;;
46377;SDS011;32083;47.360;9.650;2022-12-26T01:29:31;10.93;;;8.30;;
46377;SDS011;32083;47.360;9.650;2022-12-26T01:31:57;15.63;;;9.05;;
46377;SDS011;32083;47.360;9.650;2022-12-26T01:34:23;47.17;;;11.57;;
46377;SDS011;32083;47.360;9.650;2022-12-26T01:36:50;68.93;;;16.13;;
46377;SDS011;32083;47.360;9.650;2022-12-26T01:39:16;47.35;;;12.43;;
46377;SDS011;32083;47.360;9.650;2022-12-26T01:41:42;55.50;;;13.13;;
46377;SDS011;32083;47.360;9.650;2022-12-26T01:47:12;57.25;;;13.70;;
46377;SDS011;32083;47.360;9.650;2022-12-26T01:49:40;56.55;;;11.98;;
46377;SDS011;32083;47.360;9.650;2022-12-26T01:52:10;61.78;;;13.73;;
46377;SDS011;32083;47.360;9.650;2022-12-26T01:54:40;15.73;;;7.75;;
46377;SDS011;32083;47.360;9.650;2022-12-26T01:57:19;26.80;;;9.88;;
46377;SDS011;32083;47.360;9.650;2022-12-26T01:59:53;29.92;;;9.98;;
46377;SDS011;32083;47.360;9.650;2022-12-26T02:02:22;33.78;;;11.80;;
46377;SDS011;32083;47.360;9.650;2022-12-26T02:04:51;34.00;;;11.05;;
46377;SDS011;32083;47.360;9.650;2022-12-26T02:07:39;23.95;;;9.85;;
46377;SDS011;32083;47.360;9.650;2022-12-26T02:10:08;40.13;;;13.35;;
46377;SDS011;32083;47.360;9.650;2022-12-26T02:12:39;28.55;;;9.85;;
46377;SDS011;32083;47.360;9.650;2022-12-26T02:15:12;51.20;;;12.05;;
46377;SDS011;32083;47.360;9.650;2022-12-26T02:17:40;44.35;;;10.73;;
46377;SDS011;32083;47.360;9.650;2022-12-26T02:20:42;61.35;;;16.02;;
46377;SDS011;32083;47.360;9.650;2022-12-26T02:35:06;45.22;;;10.10;;
46377;SDS011;32083;47.360;9.650;2022-12-26T02:40:55;131.93;;;17.08;;
46377;SDS011;32083;47.360;9.650;2022-12-26T02:52:25;117.13;;;13.30;;
46377;SDS011;32083;47.360;9.650;2022-12-26T02:55:20;73.50;;;12.32;;
46377;SDS011;32083;47.360;9.650;2022-12-26T02:58:19;117.13;;;17.63;;
46377;SDS011;32083;47.360;9.650;2022-12-26T03:01:21;62.40;;;10.80;;
46377;SDS011;32083;47.360;9.650;2022-12-26T03:04:13;83.82;;;13.73;;
46377;SDS011;32083;47.360;9.650;2022-12-26T03:07:02;61.25;;;11.02;;
46377;SDS011;32083;47.360;9.650;2022-12-26T03:09:48;60.15;;;9.25;;
46377;SDS011;32083;47.360;9.650;2022-12-26T03:12:41;61.03;;;9.45;;
46377;SDS011;32083;47.360;9.650;2022-12-26T03:15:36;82.28;;;11.18;;
46377;SDS011;32083;47.360;9.650;2022-12-26T03:18:28;70.15;;;12.32;;
46377;SDS011;32083;47.360;9.650;2022-12-26T03:20:59;156.25;;;19.02;;
46377;SDS011;32083;47.360;9.650;2022-12-26T03:23:26;92.38;;;12.82;;
46377;SDS011;32083;47.360;9.650;2022-12-26T03:25:55;127.85;;;16.92;;
46377;SDS011;32083;47.360;9.650;2022-12-26T03:28:42;77.55;;;12.50;;
46377;SDS011;32083;47.360;9.650;2022-12-26T03:31:09;135.73;;;19.35;;
46377;SDS011;32083;47.360;9.650;2022-12-26T03:33:39;35.17;;;8.32;;
46377;SDS011;32083;47.360;9.650;2022-12-26T03:42:22;21.00;;;6.35;;
46377;SDS011;32083;47.360;9.650;2022-12-26T03:45:19;18.75;;;6.22;;
46377;SDS011;32083;47.360;9.650;2022-12-26T03:51:24;23.40;;;7.03;;
46377;SDS011;32083;47.360;9.650;2022-12-26T03:54:23;46.83;;;12.10;;
46377;SDS011;32083;47.360;9.650;2022-12-26T03:57:14;12.98;;;7.00;;
46377;SDS011;32083;47.360;9.650;2022-12-26T04:00:05;31.17;;;8.27;;
46377;SDS011;32083;47.360;9.650;2022-12-26T04:02:53;20.50;;;6.50;;
46377;SDS011;32083;47.360;9.650;2022-12-26T04:05:43;46.65;;;10.05;;
46377;SDS011;32083;47.360;9.650;2022-12-26T04:09:06;46.90;;;11.68;;
46377;SDS011;32083;47.360;9.650;2022-12-26T04:11:46;13.20;;;6.68;;
46377;SDS011;32083;47.360;9.650;2022-12-26T04:17:44;25.60;;;8.93;;
46377;SDS011;32083;47.360;9.650;2022-12-26T04:20:45;10.98;;;8.23;;
46377;SDS011;32083;47.360;9.650;2022-12-26T04:26:39;78.15;;;12.82;;
46377;SDS011;32083;47.360;9.650;2022-12-26T04:29:30;13.85;;;6.00;;
46377;SDS011;32083;47.360;9.650;2022-12-26T04:35:28;21.40;;;7.63;;
46377;SDS011;32083;47.360;9.650;2022-12-26T04:38:15;8.63;;;6.63;;
46377;SDS011;32083;47.360;9.650;2022-12-26T04:41:13;8.93;;;6.93;;
46377;SDS011;32083;47.360;9.650;2022-12-26T04:44:01;6.57;;;5.85;;
46377;SDS011;32083;47.360;9.650;2022-12-26T04:46:45;6.75;;;5.32;;
46377;SDS011;32083;47.360;9.650;2022-12-26T04:49:13;4.85;;;4.25;;
46377;SDS011;32083;47.360;9.650;2022-12-26T04:51:59;8.25;;;5.13;;
46377;SDS011;32083;47.360;9.650;2022-12-26T04:54:27;7.53;;;6.13;;
46377;SDS011;32083;47.360;9.650;2022-12-26T04:56:53;8.32;;;6.43;;
46377;SDS011;32083;47.360;9.650;2022-12-26T04:59:20;8.18;;;5.65;;
46377;SDS011;32083;47.360;9.650;2022-12-26T05:01:47;5.65;;;5.03;;
46377;SDS011;32083;47.360;9.650;2022-12-26T05:04:31;6.63;;;5.50;;
46377;SDS011;32083;47.360;9.650;2022-12-26T05:07:29;6.70;;;5.63;;
46377;SDS011;32083;47.360;9.650;2022-12-26T05:10:23;7.53;;;6.25;;
46377;SDS011;32083;47.360;9.650;2022-12-26T05:12:51;4.78;;;4.38;;
46377;SDS011;32083;47.360;9.650;2022-12-26T05:15:17;5.68;;;5.05;;
46377;SDS011;32083;47.360;9.650;2022-12-26T05:17:43;5.72;;;4.72;;
46377;SDS011;32083;47.360;9.650;2022-12-26T05:20:28;7.05;;;5.32;;
46377;SDS011;32083;47.360;9.650;2022-12-26T05:23:14;5.30;;;4.65;;
46377;SDS011;32083;47.360;9.650;2022-12-26T05:26:02;8.32;;;5.80;;
46377;SDS011;32083;47.360;9.650;2022-12-26T05:28:54;7.18;;;6.32;;
46377;SDS011;32083;47.360;9.650;2022-12-26T05:31:22;9.10;;;5.85;;
46377;SDS011;32083;47.360;9.650;2022-12-26T05:33:48;6.28;;;5.55;;
46377;SDS011;32083;47.360;9.650;2022-12-26T05:39:07;8.02;;;7.22;;
46377;SDS011;32083;47.360;9.650;2022-12-26T05:41:34;6.95;;;6.15;;
46377;SDS011;32083;47.360;9.650;2022-12-26T05:44:00;7.03;;;6.10;;
46377;SDS011;32083;47.360;9.650;2022-12-26T05:46:26;7.15;;;6.45;;
46377;SDS011;32083;47.360;9.650;2022-12-26T05:48:52;6.88;;;5.50;;
46377;SDS011;32083;47.360;9.650;2022-12-26T05:51:17;5.63;;;4.88;;
46377;SDS011;32083;47.360;9.650;2022-12-26T05:53:43;5.10;;;4.60;;
46377;SDS011;32083;47.360;9.650;2022-12-26T05:56:10;5.70;;;5.13;;
46377;SDS011;32083;47.360;9.650;2022-12-26T05:58:40;7.15;;;4.93;;
46377;SDS011;32083;47.360;9.650;2022-12-26T06:01:10;6.38;;;5.10;;
46377;SDS011;32083;47.360;9.650;2022-12-26T06:03:41;7.15;;;6.32;;
46377;SDS011;32083;47.360;9.650;2022-12-26T06:06:11;5.88;;;5.25;;
46377;SDS011;32083;47.360;9.650;2022-12-26T06:08:37;9.90;;;6.85;;
46377;SDS011;32083;47.360;9.650;2022-12-26T06:11:07;18.35;;;11.48;;
46377;SDS011;32083;47.360;9.650;2022-12-26T06:13:34;18.48;;;13.20;;
46377;SDS011;32083;47.360;9.650;2022-12-26T06:16:06;16.02;;;12.55;;
46377;SDS011;32083;47.360;9.650;2022-12-26T06:18:34;15.10;;;13.25;;
46377;SDS011;32083;47.360;9.650;2022-12-26T06:21:08;12.82;;;11.48;;
46377;SDS011;32083;47.360;9.650;2022-12-26T06:23:35;8.55;;;7.65;;
46377;SDS011;32083;47.360;9.650;2022-12-26T06:26:02;10.18;;;8.48;;
46377;SDS011;32083;47.360;9.650;2022-12-26T06:28:28;5.03;;;3.92;;
46377;SDS011;32083;47.360;9.650;2022-12-26T06:30:56;5.28;;;4.30;;
46377;SDS011;32083;47.360;9.650;2022-12-26T06:33:29;3.38;;;2.80;;
46377;SDS011;32083;47.360;9.650;2022-12-26T06:36:00;2.83;;;2.03;;
46377;SDS011;32083;47.360;9.650;2022-12-26T06:38:36;2.83;;;2.47;;
46377;SDS011;32083;47.360;9.650;2022-12-26T06:41:06;2.47;;;1.55;;
46377;SDS011;32083;47.360;9.650;2022-12-26T06:43:34;3.20;;;2.00;;
46377;SDS011;32083;47.360;9.650;2022-12-26T06:46:00;1.90;;;1.50;;
46377;SDS011;32083;47.360;9.650;2022-12-26T06:48:27;2.33;;;1.45;;
46377;SDS011;32083;47.360;9.650;2022-12-26T06:50:53;2.30;;;1.63;;
46377;SDS011;32083;47.360;9.650;2022-12-26T06:53:20;2.47;;;1.80;;
46377;SDS011;32083;47.360;9.650;2022-12-26T06:55:46;3.03;;;1.80;;
46377;SDS011;32083;47.360;9.650;2022-12-26T06:58:13;2.08;;;1.65;;
46377;SDS011;32083;47.360;9.650;2022-12-26T07:00:40;1.98;;;1.42;;
46377;SDS011;32083;47.360;9.650;2022-12-26T07:03:06;3.22;;;2.00;;
46377;SDS011;32083;47.360;9.650;2022-12-26T07:05:34;3.08;;;2.10;;
46377;SDS011;32083;47.360;9.650;2022-12-26T07:08:01;1.77;;;1.30;;
46377;SDS011;32083;47.360;9.650;2022-12-26T07:10:27;1.95;;;1.48;;
46377;SDS011;32083;47.360;9.650;2022-12-26T07:12:52;2.83;;;1.83;;
46377;SDS011;32083;47.360;9.650;2022-12-26T07:15:18;2.35;;;1.85;;
46377;SDS011;32083;47.360;9.650;2022-12-26T07:17:44;1.90;;;1.58;;
46377;SDS011;32083;47.360;9.650;2022-12-26T07:20:10;2.10;;;1.63;;
46377;SDS011;32083;47.360;9.650;2022-12-26T07:22:36;3.88;;;2.90;;
46377;SDS011;32083;47.360;9.650;2022-12-26T07:25:02;4.22;;;2.70;;
46377;SDS011;32083;47.360;9.650;2022-12-26T07:27:29;4.03;;;2.70;;
46377;SDS011;32083;47.360;9.650;2022-12-26T07:29:54;5.05;;;3.45;;
46377;SDS011;32083;47.360;9.650;2022-12-26T07:32:20;5.00;;;3.33;;
46377;SDS011;32083;47.360;9.650;2022-12-26T07:34:46;3.67;;;3.08;;
46377;SDS011;32083;47.360;9.650;2022-12-26T07:37:12;3.88;;;3.05;;
46377;SDS011;32083;47.360;9.650;2022-12-26T07:39:39;2.63;;;2.00;;
46377;SDS011;32083;47.360;9.650;2022-12-26T07:42:05;2.17;;;1.77;;
46377;SDS011;32083;47.360;9.650;2022-12-26T07:44:36;2.28;;;1.40;;
46377;SDS011;32083;47.360;9.650;2022-12-26T07:47:03;4.20;;;3.80;;
46377;SDS011;32083;47.360;9.650;2022-12-26T07:49:30;3.58;;;3.28;;
46377;SDS011;32083;47.360;9.650;2022-12-26T07:54:28;4.18;;;2.78;;
46377;SDS011;32083;47.360;9.650;2022-12-26T07:56:56;5.57;;;4.03;;
46377;SDS011;32083;47.360;9.650;2022-12-26T07:59:22;4.63;;;4.15;;
46377;SDS011;32083;47.360;9.650;2022-12-26T08:01:48;5.53;;;4.88;;
46377;SDS011;32083;47.360;9.650;2022-12-26T08:04:14;4.60;;;3.80;;
46377;SDS011;32083;47.360;9.650;2022-12-26T08:06:40;4.43;;;3.28;;
46377;SDS011;32083;47.360;9.650;2022-12-26T08:09:06;3.88;;;3.13;;
46377;SDS011;32083;47.360;9.650;2022-12-26T08:11:36;4.38;;;3.15;;
46377;SDS011;32083;47.360;9.650;2022-12-26T08:14:02;3.80;;;3.17;;
46377;SDS011;32083;47.360;9.650;2022-12-26T08:16:28;18.40;;;3.50;;
46377;SDS011;32083;47.360;9.650;2022-12-26T08:18:55;5.10;;;4.60;;
46377;SDS011;32083;47.360;9.650;2022-12-26T08:21:21;5.20;;;3.67;;
46377;SDS011;32083;47.360;9.650;2022-12-26T08:23:47;3.85;;;2.67;;
46377;SDS011;32083;47.360;9.650;2022-12-26T08:26:13;4.63;;;3.35;;
46377;SDS011;32083;47.360;9.650;2022-12-26T08:28:46;5.10;;;4.60;;
46377;SDS011;32083;47.360;9.650;2022-12-26T08:31:14;4.57;;;3.70;;
46377;SDS011;32083;47.360;9.650;2022-12-26T08:33:40;4.38;;;3.95;;
46377;SDS011;32083;47.360;9.650;2022-12-26T08:36:07;5.40;;;4.82;;
46377;SDS011;32083;47.360;9.650;2022-12-26T08:38:35;4.15;;;2.63;;
46377;SDS011;32083;47.360;9.650;2022-12-26T08:41:03;5.40;;;3.58;;
46377;SDS011;32083;47.360;9.650;2022-12-26T08:43:29;9.00;;;4.40;;
46377;SDS011;32083;47.360;9.650;2022-12-26T08:45:57;5.00;;;4.50;;
46377;SDS011;32083;47.360;9.650;2022-12-26T08:48:28;5.80;;;4.40;;
46377;SDS011;32083;47.360;9.650;2022-12-26T08:50:55;5.63;;;4.63;;
46377;SDS011;32083;47.360;9.650;2022-12-26T08:53:26;7.38;;;5.57;;
46377;SDS011;32083;47.360;9.650;2022-12-26T08:55:53;5.40;;;4.82;;
46377;SDS011;32083;47.360;9.650;2022-12-26T08:58:20;5.15;;;3.97;;
46377;SDS011;32083;47.360;9.650;2022-12-26T09:00:46;4.90;;;4.38;;
46377;SDS011;32083;47.360;9.650;2022-12-26T09:03:13;4.57;;;3.63;;
46377;SDS011;32083;47.360;9.650;2022-12-26T09:05:39;3.63;;;2.65;;
46377;SDS011;32083;47.360;9.650;2022-12-26T09:08:05;3.22;;;2.92;;
46377;SDS011;32083;47.360;9.650;2022-12-26T09:10:32;4.63;;;2.92;;
46377;SDS011;32083;47.360;9.650;2022-12-26T09:12:58;3.13;;;2.25;;
46377;SDS011;32083;47.360;9.650;2022-12-26T09:15:24;3.75;;;2.65;;
46377;SDS011;32083;47.360;9.650;2022-12-26T09:17:50;2.92;;;2.15;;
46377;SDS011;32083;47.360;9.650;2022-12-26T09:20:16;3.55;;;2.03;;
46377;SDS011;32083;47.360;9.650;2022-12-26T09:22:41;2.08;;;1.65;;
46377;SDS011;32083;47.360;9.650;2022-12-26T09:25:17;3.63;;;2.95;;
46377;SDS011;32083;47.360;9.650;2022-12-26T09:27:44;2.25;;;1.75;;
46377;SDS011;32083;47.360;9.650;2022-12-26T09:30:11;2.97;;;2.13;;
46377;SDS011;32083;47.360;9.650;2022-12-26T09:32:37;3.05;;;1.90;;
46377;SDS011;32083;47.360;9.650;2022-12-26T09:35:04;2.60;;;2.00;;
46377;SDS011;32083;47.360;9.650;2022-12-26T09:37:30;4.32;;;2.13;;
46377;SDS011;32083;47.360;9.650;2022-12-26T09:39:56;3.35;;;1.85;;
46377;SDS011;32083;47.360;9.650;2022-12-26T09:42:26;3.00;;;1.50;;
46377;SDS011;32083;47.360;9.650;2022-12-26T09:47:55;1.88;;;1.50;;
46377;SDS011;32083;47.360;9.650;2022-12-26T09:50:37;1.77;;;1.45;;
46377;SDS011;32083;47.360;9.650;2022-12-26T09:53:05;2.83;;;1.83;;
46377;SDS011;32083;47.360;9.650;2022-12-26T09:55:37;3.15;;;1.50;;
46377;SDS011;32083;47.360;9.650;2022-12-26T10:06:17;2.38;;;1.35;;
46377;SDS011;32083;47.360;9.650;2022-12-26T10:14:46;2.30;;;1.52;;
46377;SDS011;32083;47.360;9.650;2022-12-26T10:17:26;2.30;;;1.45;;
46377;SDS011;32083;47.360;9.650;2022-12-26T10:25:54;2.75;;;1.50;;
46377;SDS011;32083;47.360;9.650;2022-12-26T10:30:58;2.90;;;1.87;;
46377;SDS011;32083;47.360;9.650;2022-12-26T10:33:48;1.52;;;1.15;;
46377;SDS011;32083;47.360;9.650;2022-12-26T10:36:30;3.45;;;1.40;;
46377;SDS011;32083;47.360;9.650;2022-12-26T10:38:59;2.00;;;1.30;;
46377;SDS011;32083;47.360;9.650;2022-12-26T10:41:31;1.48;;;1.20;;
46377;SDS011;32083;47.360;9.650;2022-12-26T10:44:03;2.80;;;1.65;;
46377;SDS011;32083;47.360;9.650;2022-12-26T10:46:39;2.22;;;1.73;;
46377;SDS011;32083;47.360;9.650;2022-12-26T10:49:16;5.70;;;3.45;;
46377;SDS011;32083;47.360;9.650;2022-12-26T10:51:46;3.05;;;2.10;;
46377;SDS011;32083;47.360;9.650;2022-12-26T10:54:14;2.88;;;2.50;;
46377;SDS011;32083;47.360;9.650;2022-12-26T10:56:46;4.47;;;2.97;;
46377;SDS011;32083;47.360;9.650;2022-12-26T11:00:00;7.22;;;4.40;;
46377;SDS011;32083;47.360;9.650;2022-12-26T11:02:14;3.28;;;2.97;;
46377;SDS011;32083;47.360;9.650;2022-12-26T11:07:37;3.58;;;2.65;;
46377;SDS011;32083;47.360;9.650;2022-12-26T11:10:18;5.47;;;3.20;;
46377;SDS011;32083;47.360;9.650;2022-12-26T11:12:48;3.85;;;3.15;;
46377;SDS011;32083;47.360;9.650;2022-12-26T11:18:05;3.88;;;3.10;;
46377;SDS011;32083;47.360;9.650;2022-12-26T11:20:52;3.83;;;3.10;;
46377;SDS011;32083;47.360;9.650;2022-12-26T11:23:28;8.77;;;3.10;;
46377;SDS011;32083;47.360;9.650;2022-12-26T11:25:58;4.13;;;3.72;;
46377;SDS011;32083;47.360;9.650;2022-12-26T11:31:03;3.10;;;2.53;;
46377;SDS011;32083;47.360;9.650;2022-12-26T11:33:33;3.13;;;2.40;;
46377;SDS011;32083;47.360;9.650;2022-12-26T11:36:21;3.13;;;2.40;;
46377;SDS011;32083;47.360;9.650;2022-12-26T11:38:53;4.45;;;3.13;;
46377;SDS011;32083;47.360;9.650;2022-12-26T11:55:31;3.67;;;2.67;;
46377;SDS011;32083;47.360;9.650;2022-12-26T12:00:41;3.17;;;2.63;;
46377;SDS011;32083;47.360;9.650;2022-12-26T12:08:52;3.33;;;2.42;;
46377;SDS011;32083;47.360;9.650;2022-12-26T12:11:31;4.00;;;2.63;;
46377;SDS011;32083;47.360;9.650;2022-12-26T12:17:18;3.08;;;2.22;;
46377;SDS011;32083;47.360;9.650;2022-12-26T12:19:53;3.58;;;2.00;;
46377;SDS011;32083;47.360;9.650;2022-12-26T12:25:25;2.72;;;1.95;;
46377;SDS011;32083;47.360;9.650;2022-12-26T12:31:03;2.75;;;1.70;;
46377;SDS011;32083;47.360;9.650;2022-12-26T12:39:24;3.70;;;3.20;;
46377;SDS011;32083;47.360;9.650;2022-12-26T12:42:08;3.75;;;2.22;;
46377;SDS011;32083;47.360;9.650;2022-12-26T12:44:57;5.60;;;2.42;;
46377;SDS011;32083;47.360;9.650;2022-12-26T12:47:44;2.88;;;2.40;;
46377;SDS011;32083;47.360;9.650;2022-12-26T12:50:18;5.03;;;2.92;;
46377;SDS011;32083;47.360;9.650;2022-12-26T12:58:30;5.90;;;2.88;;
46377;SDS011;32083;47.360;9.650;2022-12-26T13:01:21;3.53;;;2.60;;
46377;SDS011;32083;47.360;9.650;2022-12-26T13:04:16;4.38;;;2.90;;
46377;SDS011;32083;47.360;9.650;2022-12-26T13:10:05;3.40;;;2.78;;
46377;SDS011;32083;47.360;9.650;2022-12-26T13:12:49;8.20;;;3.20;;
46377;SDS011;32083;47.360;9.650;2022-12-26T13:18:02;4.82;;;3.05;;
46377;SDS011;32083;47.360;9.650;2022-12-26T13:20:43;4.55;;;3.72;;
46377;SDS011;32083;47.360;9.650;2022-12-26T13:23:21;4.35;;;3.70;;
46377;SDS011;32083;47.360;9.650;2022-12-26T13:26:25;6.65;;;4.88;;
46377;SDS011;32083;47.360;9.650;2022-12-26T13:29:09;7.90;;;4.18;;
46377;SDS011;32083;47.360;9.650;2022-12-26T13:31:55;5.97;;;4.68;;
46377;SDS011;32083;47.360;9.650;2022-12-26T13:34:23;5.63;;;3.72;;
46377;SDS011;32083;47.360;9.650;2022-12-26T13:36:50;6.15;;;4.35;;
46377;SDS011;32083;47.360;9.650;2022-12-26T13:41:50;5.70;;;4.30;;
46377;SDS011;32083;47.360;9.650;2022-12-26T13:44:51;7.00;;;4.43;;
46377;SDS011;32083;47.360;9.650;2022-12-26T13:47:31;6.85;;;4.57;;
46377;SDS011;32083;47.360;9.650;2022-12-26T13:55:51;11.93;;;5.43;;
46377;SDS011;32083;47.360;9.650;2022-12-26T14:31:19;6.88;;;6.18;;
46377;SDS011;32083;47.360;9.650;2022-12-26T14:34:03;8.02;;;4.55;;
46377;SDS011;32083;47.360;9.650;2022-12-26T14:37:03;6.00;;;5.40;;
46377;SDS011;32083;47.360;9.650;2022-12-26T14:39:45;5.45;;;4.30;;
46377;SDS011;32083;47.360;9.650;2022-12-26T14:42:23;5.72;;;4.38;;
46377;SDS011;32083;47.360;9.650;2022-12-26T14:45:12;6.90;;;6.20;;
46377;SDS011;32083;47.360;9.650;2022-12-26T14:47:53;3.83;;;3.33;;
46377;SDS011;32083;47.360;9.650;2022-12-26T15:00:56;1.48;;;1.13;;
46377;SDS011;32083;47.360;9.650;2022-12-26T15:09:23;8.60;;;6.00;;
46377;SDS011;32083;47.360;9.650;2022-12-26T15:34:48;1.25;;;1.00;;
46377;SDS011;32083;47.360;9.650;2022-12-26T15:38:10;1.65;;;1.23;;
46377;SDS011;32083;47.360;9.650;2022-12-26T15:40:18;2.30;;;1.40;;
46377;SDS011;32083;47.360;9.650;2022-12-26T15:45:37;1.65;;;1.10;;
46377;SDS011;32083;47.360;9.650;2022-12-26T16:01:58;8.73;;;2.63;;
46377;SDS011;32083;47.360;9.650;2022-12-26T16:04:29;4.18;;;1.83;;
46377;SDS011;32083;47.360;9.650;2022-12-26T16:07:36;3.83;;;1.55;;
46377;SDS011;32083;47.360;9.650;2022-12-26T16:10:31;2.08;;;1.40;;
46377;SDS011;32083;47.360;9.650;2022-12-26T16:13:05;2.05;;;1.33;;
46377;SDS011;32083;47.360;9.650;2022-12-26T16:15:47;2.35;;;2.10;;
46377;SDS011;32083;47.360;9.650;2022-12-26T16:18:35;5.10;;;1.70;;
46377;SDS011;32083;47.360;9.650;2022-12-26T16:21:04;2.88;;;2.50;;
46377;SDS011;32083;47.360;9.650;2022-12-26T16:23:49;7.32;;;4.60;;
46377;SDS011;32083;47.360;9.650;2022-12-26T16:26:19;7.38;;;3.80;;
46377;SDS011;32083;47.360;9.650;2022-12-26T16:28:49;5.68;;;2.85;;
46377;SDS011;32083;47.360;9.650;2022-12-26T16:31:20;3.92;;;2.67;;
46377;SDS011;32083;47.360;9.650;2022-12-26T16:33:50;1.00;;;0.65;;
46377;SDS011;32083;47.360;9.650;2022-12-26T16:36:19;1.10;;;0.60;;
46377;SDS011;32083;47.360;9.650;2022-12-26T16:38:47;0.93;;;0.75;;
46377;SDS011;32083;47.360;9.650;2022-12-26T16:43:44;1.85;;;1.65;;
46377;SDS011;32083;47.360;9.650;2022-12-26T16:46:10;1.58;;;1.48;;
46377;SDS011;32083;47.360;9.650;2022-12-26T16:48:37;0.50;;;0.40;;
46377;SDS011;32083;47.360;9.650;2022-12-26T16:51:09;1.70;;;1.00;;
46377;SDS011;32083;47.360;9.650;2022-12-26T16:56:49;1.45;;;0.75;;
46377;SDS011;32083;47.360;9.650;2022-12-26T16:59:27;0.70;;;0.50;;
46377;SDS011;32083;47.360;9.650;2022-12-26T17:02:02;0.80;;;0.60;;
46377;SDS011;32083;47.360;9.650;2022-12-26T17:04:28;2.00;;;0.88;;
46377;SDS011;32083;47.360;9.650;2022-12-26T17:09:31;1.15;;;0.55;;
46377;SDS011;32083;47.360;9.650;2022-12-26T17:12:19;0.50;;;0.38;;
46377;SDS011;32083;47.360;9.650;2022-12-26T17:14:59;0.22;;;0.22;;
46377;SDS011;32083;47.360;9.650;2022-12-26T17:17:34;0.20;;;0.20;;
46377;SDS011;32083;47.360;9.650;2022-12-26T17:22:46;1.85;;;0.60;;
46377;SDS011;32083;47.360;9.650;2022-12-26T17:27:44;0.88;;;0.60;;
46377;SDS011;32083;47.360;9.650;2022-12-26T17:30:26;0.60;;;0.50;;
46377;SDS011;32083;47.360;9.650;2022-12-26T17:32:53;1.08;;;0.75;;
46377;SDS011;32083;47.360;9.650;2022-12-26T17:35:25;1.00;;;0.60;;
46377;SDS011;32083;47.360;9.650;2022-12-26T17:37:55;1.17;;;0.77;;
46377;SDS011;32083;47.360;9.650;2022-12-26T17:40:29;0.50;;;0.43;;
46377;SDS011;32083;47.360;9.650;2022-12-26T17:45:38;0.40;;;0.30;;
46377;SDS011;32083;47.360;9.650;2022-12-26T17:48:05;1.50;;;0.90;;
46377;SDS011;32083;47.360;9.650;2022-12-26T17:50:36;1.00;;;0.68;;
46377;SDS011;32083;47.360;9.650;2022-12-26T17:53:06;0.20;;;0.20;;
46377;SDS011;32083;47.360;9.650;2022-12-26T17:55:44;1.05;;;0.60;;
46377;SDS011;32083;47.360;9.650;2022-12-26T17:58:10;1.92;;;1.10;;
46377;SDS011;32083;47.360;9.650;2022-12-26T18:00:37;2.10;;;1.20;;
46377;SDS011;32083;47.360;9.650;2022-12-26T18:03:04;1.90;;;1.15;;
46377;SDS011;32083;47.360;9.650;2022-12-26T18:05:31;0.95;;;0.50;;
46377;SDS011;32083;47.360;9.650;2022-12-26T18:07:59;0.65;;;0.40;;
46377;SDS011;32083;47.360;9.650;2022-12-26T18:10:26;0.88;;;0.52;;
46377;SDS011;32083;47.360;9.650;2022-12-26T18:12:56;1.20;;;0.68;;
46377;SDS011;32083;47.360;9.650;2022-12-26T18:15:23;0.60;;;0.52;;
46377;SDS011;32083;47.360;9.650;2022-12-26T18:17:51;1.48;;;0.60;;
46377;SDS011;32083;47.360;9.650;2022-12-26T18:22:51;0.30;;;0.30;;
46377;SDS011;32083;47.360;9.650;2022-12-26T18:25:19;0.10;;;0.10;;
46377;SDS011;32083;47.360;9.650;2022-12-26T18:27:47;0.40;;;0.28;;
46377;SDS011;32083;47.360;9.650;2022-12-26T18:30:18;0.17;;;0.17;;
46377;SDS011;32083;47.360;9.650;2022-12-26T18:32:47;0.32;;;0.20;;
46377;SDS011;32083;47.360;9.650;2022-12-26T18:35:14;0.40;;;0.30;;
46377;SDS011;32083;47.360;9.650;2022-12-26T18:37:42;1.02;;;0.52;;
46377;SDS011;32083;47.360;9.650;2022-12-26T18:40:26;0.45;;;0.20;;
46377;SDS011;32083;47.360;9.650;2022-12-26T18:42:56;0.20;;;0.20;;
46377;SDS011;32083;47.360;9.650;2022-12-26T18:45:22;0.30;;;0.20;;
46377;SDS011;32083;47.360;9.650;2022-12-26T18:47:48;1.02;;;0.60;;
46377;SDS011;32083;47.360;9.650;2022-12-26T18:50:14;0.35;;;0.30;;
46377;SDS011;32083;47.360;9.650;2022-12-26T18:52:41;0.98;;;0.73;;
46377;SDS011;32083;47.360;9.650;2022-12-26T18:55:07;1.17;;;0.52;;
46377;SDS011;32083;47.360;9.650;2022-12-26T18:57:33;0.60;;;0.40;;
46377;SDS011;32083;47.360;9.650;2022-12-26T18:59:59;0.45;;;0.30;;
46377;SDS011;32083;47.360;9.650;2022-12-26T19:02:25;0.20;;;0.20;;
46377;SDS011;32083;47.360;9.650;2022-12-26T19:04:51;1.23;;;0.30;;
46377;SDS011;32083;47.360;9.650;2022-12-26T19:07:18;0.77;;;0.55;;
46377;SDS011;32083;47.360;9.650;2022-12-26T19:09:48;0.75;;;0.32;;
46377;SDS011;32083;47.360;9.650;2022-12-26T19:12:19;0.65;;;0.25;;
46377;SDS011;32083;47.360;9.650;2022-12-26T19:14:45;0.50;;;0.40;;
46377;SDS011;32083;47.360;9.650;2022-12-26T19:17:11;0.60;;;0.38;;
46377;SDS011;32083;47.360;9.650;2022-12-26T19:19:38;1.33;;;0.60;;
46377;SDS011;32083;47.360;9.650;2022-12-26T19:22:04;0.20;;;0.20;;
46377;SDS011;32083;47.360;9.650;2022-12-26T19:24:31;0.40;;;0.30;;
46377;SDS011;32083;47.360;9.650;2022-12-26T19:26:58;0.50;;;0.30;;